sensor_id;sensor_type;location;lat;lon;timestamp;P1;durP1;ratioP1;P2;durP2;ratioP2
32455;SDS011;18912;43.270;27.942;2022-10-16T00:01:45;20.13;;;7.27;;
32455;SDS011;18912;43.270;27.942;2022-10-16T00:04:11;13.35;;;6.55;;
32455;SDS011;18912;43.270;27.942;2022-10-16T00:06:37;19.65;;;7.38;;
32455;SDS011;18912;43.270;27.942;2022-10-16T00:09:03;18.73;;;6.83;;
32455;SDS011;18912;43.270;27.942;2022-10-16T00:11:32;19.00;;;7.53;;
32455;SDS011;18912;43.270;27.942;2022-10-16T00:14:01;14.73;;;6.63;;
32455;SDS011;18912;43.270;27.942;2022-10-16T00:16:33;17.17;;;6.63;;
32455;SDS011;18912;43.270;27.942;2022-10-16T00:18:59;14.77;;;7.40;;
32455;SDS011;18912;43.270;27.942;2022-10-16T00:21:26;16.43;;;7.17;;
32455;SDS011;18912;43.270;27.942;2022-10-16T00:23:53;23.88;;;6.95;;
32455;SDS011;18912;43.270;27.942;2022-10-16T00:26:20;12.63;;;7.03;;
32455;SDS011;18912;43.270;27.942;2022-10-16T00:28:47;16.55;;;7.22;;
32455;SDS011;18912;43.270;27.942;2022-10-16T00:31:13;20.58;;;6.93;;
32455;SDS011;18912;43.270;27.942;2022-10-16T00:33:40;15.43;;;7.05;;
32455;SDS011;18912;43.270;27.942;2022-10-16T00:36:06;15.65;;;6.70;;
32455;SDS011;18912;43.270;27.942;2022-10-16T00:38:34;17.70;;;7.70;;
32455;SDS011;18912;43.270;27.942;2022-10-16T00:41:00;10.80;;;7.03;;
32455;SDS011;18912;43.270;27.942;2022-10-16T00:46:22;14.48;;;7.72;;
32455;SDS011;18912;43.270;27.942;2022-10-16T00:48:52;17.88;;;8.27;;
32455;SDS011;18912;43.270;27.942;2022-10-16T00:51:21;18.75;;;8.20;;
32455;SDS011;18912;43.270;27.942;2022-10-16T00:53:49;12.07;;;6.70;;
32455;SDS011;18912;43.270;27.942;2022-10-16T00:56:15;11.43;;;6.15;;
32455;SDS011;18912;43.270;27.942;2022-10-16T00:58:41;17.27;;;6.93;;
32455;SDS011;18912;43.270;27.942;2022-10-16T01:01:07;18.47;;;7.07;;
32455;SDS011;18912;43.270;27.942;2022-10-16T01:03:33;15.03;;;7.53;;
32455;SDS011;18912;43.270;27.942;2022-10-16T01:08:50;14.18;;;7.80;;
32455;SDS011;18912;43.270;27.942;2022-10-16T01:15:07;15.60;;;8.38;;
32455;SDS011;18912;43.270;27.942;2022-10-16T01:17:23;15.98;;;8.23;;
32455;SDS011;18912;43.270;27.942;2022-10-16T01:25:59;20.60;;;9.68;;
32455;SDS011;18912;43.270;27.942;2022-10-16T01:28:29;19.52;;;8.90;;
32455;SDS011;18912;43.270;27.942;2022-10-16T01:31:01;17.10;;;9.00;;
32455;SDS011;18912;43.270;27.942;2022-10-16T01:33:28;15.98;;;8.93;;
32455;SDS011;18912;43.270;27.942;2022-10-16T01:36:02;22.58;;;9.82;;
32455;SDS011;18912;43.270;27.942;2022-10-16T01:38:36;23.15;;;9.85;;
32455;SDS011;18912;43.270;27.942;2022-10-16T01:41:06;15.43;;;9.48;;
32455;SDS011;18912;43.270;27.942;2022-10-16T01:43:37;17.73;;;8.43;;
32455;SDS011;18912;43.270;27.942;2022-10-16T01:46:08;20.00;;;9.23;;
32455;SDS011;18912;43.270;27.942;2022-10-16T01:48:35;26.15;;;9.25;;
32455;SDS011;18912;43.270;27.942;2022-10-16T01:51:09;23.25;;;10.43;;
32455;SDS011;18912;43.270;27.942;2022-10-16T01:53:36;17.42;;;9.43;;
32455;SDS011;18912;43.270;27.942;2022-10-16T01:56:04;19.10;;;9.02;;
32455;SDS011;18912;43.270;27.942;2022-10-16T01:58:35;13.95;;;8.18;;
32455;SDS011;18912;43.270;27.942;2022-10-16T02:01:10;30.98;;;10.40;;
32455;SDS011;18912;43.270;27.942;2022-10-16T02:03:38;25.23;;;10.40;;
32455;SDS011;18912;43.270;27.942;2022-10-16T02:06:07;17.40;;;9.50;;
32455;SDS011;18912;43.270;27.942;2022-10-16T02:08:33;20.77;;;9.75;;
32455;SDS011;18912;43.270;27.942;2022-10-16T02:11:00;18.13;;;9.15;;
32455;SDS011;18912;43.270;27.942;2022-10-16T02:15:57;12.55;;;7.00;;
32455;SDS011;18912;43.270;27.942;2022-10-16T02:18:23;16.50;;;6.90;;
32455;SDS011;18912;43.270;27.942;2022-10-16T02:26:27;9.77;;;5.40;;
32455;SDS011;18912;43.270;27.942;2022-10-16T02:29:02;14.02;;;4.93;;
32455;SDS011;18912;43.270;27.942;2022-10-16T02:31:33;11.50;;;4.55;;
32455;SDS011;18912;43.270;27.942;2022-10-16T02:34:02;11.35;;;5.20;;
32455;SDS011;18912;43.270;27.942;2022-10-16T02:36:30;11.43;;;4.40;;
32455;SDS011;18912;43.270;27.942;2022-10-16T02:38:57;13.30;;;5.15;;
32455;SDS011;18912;43.270;27.942;2022-10-16T02:41:25;15.80;;;5.88;;
32455;SDS011;18912;43.270;27.942;2022-10-16T02:43:51;15.60;;;5.50;;
32455;SDS011;18912;43.270;27.942;2022-10-16T02:46:16;14.60;;;6.43;;
32455;SDS011;18912;43.270;27.942;2022-10-16T02:48:43;10.82;;;5.35;;
32455;SDS011;18912;43.270;27.942;2022-10-16T02:51:09;15.33;;;7.23;;
32455;SDS011;18912;43.270;27.942;2022-10-16T02:53:34;14.63;;;6.93;;
32455;SDS011;18912;43.270;27.942;2022-10-16T02:55:59;13.87;;;7.20;;
32455;SDS011;18912;43.270;27.942;2022-10-16T02:58:25;12.57;;;6.80;;
32455;SDS011;18912;43.270;27.942;2022-10-16T03:00:50;12.37;;;6.93;;
32455;SDS011;18912;43.270;27.942;2022-10-16T03:03:16;15.23;;;6.80;;
32455;SDS011;18912;43.270;27.942;2022-10-16T03:05:42;17.67;;;6.27;;
32455;SDS011;18912;43.270;27.942;2022-10-16T03:08:10;13.00;;;5.75;;
32455;SDS011;18912;43.270;27.942;2022-10-16T03:10:36;14.45;;;6.32;;
32455;SDS011;18912;43.270;27.942;2022-10-16T03:13:01;12.07;;;6.10;;
32455;SDS011;18912;43.270;27.942;2022-10-16T03:15:27;11.43;;;5.47;;
32455;SDS011;18912;43.270;27.942;2022-10-16T03:17:54;10.85;;;5.75;;
32455;SDS011;18912;43.270;27.942;2022-10-16T03:20:19;24.30;;;6.40;;
32455;SDS011;18912;43.270;27.942;2022-10-16T03:22:45;12.00;;;6.40;;
32455;SDS011;18912;43.270;27.942;2022-10-16T03:25:10;11.30;;;4.63;;
32455;SDS011;18912;43.270;27.942;2022-10-16T03:27:36;15.53;;;6.37;;
32455;SDS011;18912;43.270;27.942;2022-10-16T03:30:02;13.37;;;5.60;;
32455;SDS011;18912;43.270;27.942;2022-10-16T03:32:28;13.32;;;6.22;;
32455;SDS011;18912;43.270;27.942;2022-10-16T03:34:54;9.53;;;5.70;;
32455;SDS011;18912;43.270;27.942;2022-10-16T03:37:21;9.48;;;5.15;;
32455;SDS011;18912;43.270;27.942;2022-10-16T03:39:46;10.83;;;5.47;;
32455;SDS011;18912;43.270;27.942;2022-10-16T03:42:12;12.53;;;6.03;;
32455;SDS011;18912;43.270;27.942;2022-10-16T03:44:37;13.77;;;5.60;;
32455;SDS011;18912;43.270;27.942;2022-10-16T03:47:03;10.17;;;4.27;;
32455;SDS011;18912;43.270;27.942;2022-10-16T03:49:28;9.87;;;4.70;;
32455;SDS011;18912;43.270;27.942;2022-10-16T03:51:54;12.57;;;5.53;;
32455;SDS011;18912;43.270;27.942;2022-10-16T03:54:19;9.03;;;5.23;;
32455;SDS011;18912;43.270;27.942;2022-10-16T03:56:45;11.00;;;5.27;;
32455;SDS011;18912;43.270;27.942;2022-10-16T03:59:10;8.83;;;4.93;;
32455;SDS011;18912;43.270;27.942;2022-10-16T04:01:36;15.40;;;4.90;;
32455;SDS011;18912;43.270;27.942;2022-10-16T04:04:01;9.23;;;5.17;;
32455;SDS011;18912;43.270;27.942;2022-10-16T04:06:26;15.23;;;5.57;;
32455;SDS011;18912;43.270;27.942;2022-10-16T04:08:52;9.37;;;4.77;;
32455;SDS011;18912;43.270;27.942;2022-10-16T04:11:17;9.77;;;4.93;;
32455;SDS011;18912;43.270;27.942;2022-10-16T04:13:43;9.97;;;5.57;;
32455;SDS011;18912;43.270;27.942;2022-10-16T04:16:08;10.33;;;5.27;;
32455;SDS011;18912;43.270;27.942;2022-10-16T04:18:34;10.30;;;5.40;;
32455;SDS011;18912;43.270;27.942;2022-10-16T04:21:06;19.00;;;5.78;;
32455;SDS011;18912;43.270;27.942;2022-10-16T04:23:32;14.60;;;6.18;;
32455;SDS011;18912;43.270;27.942;2022-10-16T04:25:59;15.97;;;7.27;;
32455;SDS011;18912;43.270;27.942;2022-10-16T04:28:25;17.40;;;6.95;;
32455;SDS011;18912;43.270;27.942;2022-10-16T04:30:51;13.05;;;6.80;;
32455;SDS011;18912;43.270;27.942;2022-10-16T04:33:17;25.00;;;7.33;;
32455;SDS011;18912;43.270;27.942;2022-10-16T04:35:42;22.03;;;7.13;;
32455;SDS011;18912;43.270;27.942;2022-10-16T04:38:08;19.23;;;6.30;;
32455;SDS011;18912;43.270;27.942;2022-10-16T04:40:33;17.33;;;6.67;;
32455;SDS011;18912;43.270;27.942;2022-10-16T04:43:01;12.70;;;6.20;;
32455;SDS011;18912;43.270;27.942;2022-10-16T04:47:56;14.27;;;6.57;;
32455;SDS011;18912;43.270;27.942;2022-10-16T04:50:22;10.48;;;6.15;;
32455;SDS011;18912;43.270;27.942;2022-10-16T04:52:47;13.13;;;6.00;;
32455;SDS011;18912;43.270;27.942;2022-10-16T04:55:13;12.73;;;6.40;;
32455;SDS011;18912;43.270;27.942;2022-10-16T04:57:38;13.53;;;5.97;;
32455;SDS011;18912;43.270;27.942;2022-10-16T05:00:04;12.00;;;5.47;;
32455;SDS011;18912;43.270;27.942;2022-10-16T05:04:56;15.18;;;6.25;;
32455;SDS011;18912;43.270;27.942;2022-10-16T05:07:21;13.83;;;5.70;;
32455;SDS011;18912;43.270;27.942;2022-10-16T05:09:46;21.07;;;6.30;;
32455;SDS011;18912;43.270;27.942;2022-10-16T05:12:12;23.07;;;8.80;;
32455;SDS011;18912;43.270;27.942;2022-10-16T05:14:38;32.13;;;12.33;;
32455;SDS011;18912;43.270;27.942;2022-10-16T05:17:03;13.17;;;5.90;;
32455;SDS011;18912;43.270;27.942;2022-10-16T05:19:29;14.83;;;5.73;;
32455;SDS011;18912;43.270;27.942;2022-10-16T05:21:54;18.00;;;4.87;;
32455;SDS011;18912;43.270;27.942;2022-10-16T05:24:20;11.90;;;5.07;;
32455;SDS011;18912;43.270;27.942;2022-10-16T05:26:45;17.63;;;4.90;;
32455;SDS011;18912;43.270;27.942;2022-10-16T05:29:11;11.23;;;4.53;;
32455;SDS011;18912;43.270;27.942;2022-10-16T05:31:36;12.60;;;4.77;;
32455;SDS011;18912;43.270;27.942;2022-10-16T05:34:02;18.23;;;4.73;;
32455;SDS011;18912;43.270;27.942;2022-10-16T05:36:28;9.37;;;4.10;;
32455;SDS011;18912;43.270;27.942;2022-10-16T05:38:53;15.80;;;4.00;;
32455;SDS011;18912;43.270;27.942;2022-10-16T05:41:19;7.67;;;4.53;;
32455;SDS011;18912;43.270;27.942;2022-10-16T05:43:46;12.95;;;4.38;;
32455;SDS011;18912;43.270;27.942;2022-10-16T05:46:12;8.65;;;3.92;;
32455;SDS011;18912;43.270;27.942;2022-10-16T05:48:38;12.32;;;4.47;;
32455;SDS011;18912;43.270;27.942;2022-10-16T05:51:05;18.47;;;5.03;;
32455;SDS011;18912;43.270;27.942;2022-10-16T05:53:34;13.95;;;4.60;;
32455;SDS011;18912;43.270;27.942;2022-10-16T05:56:01;8.82;;;4.40;;
32455;SDS011;18912;43.270;27.942;2022-10-16T05:58:35;11.70;;;4.50;;
32455;SDS011;18912;43.270;27.942;2022-10-16T06:01:09;10.10;;;4.20;;
32455;SDS011;18912;43.270;27.942;2022-10-16T06:03:37;11.32;;;4.22;;
32455;SDS011;18912;43.270;27.942;2022-10-16T06:08:39;13.55;;;4.90;;
32455;SDS011;18912;43.270;27.942;2022-10-16T06:11:09;6.82;;;3.67;;
32455;SDS011;18912;43.270;27.942;2022-10-16T06:13:36;8.13;;;3.70;;
32455;SDS011;18912;43.270;27.942;2022-10-16T06:16:02;13.80;;;3.57;;
32455;SDS011;18912;43.270;27.942;2022-10-16T06:18:28;5.88;;;3.28;;
32455;SDS011;18912;43.270;27.942;2022-10-16T06:20:54;9.35;;;2.88;;
32455;SDS011;18912;43.270;27.942;2022-10-16T06:23:21;7.80;;;3.40;;
32455;SDS011;18912;43.270;27.942;2022-10-16T06:25:47;6.20;;;2.70;;
32455;SDS011;18912;43.270;27.942;2022-10-16T06:28:15;7.17;;;2.13;;
32455;SDS011;18912;43.270;27.942;2022-10-16T06:30:42;6.70;;;2.38;;
32455;SDS011;18912;43.270;27.942;2022-10-16T06:33:10;4.25;;;2.25;;
32455;SDS011;18912;43.270;27.942;2022-10-16T06:35:36;6.45;;;2.50;;
32455;SDS011;18912;43.270;27.942;2022-10-16T06:38:02;7.63;;;2.83;;
32455;SDS011;18912;43.270;27.942;2022-10-16T06:40:27;8.53;;;2.30;;
32455;SDS011;18912;43.270;27.942;2022-10-16T06:42:56;5.53;;;2.50;;
32455;SDS011;18912;43.270;27.942;2022-10-16T06:45:22;6.57;;;2.10;;
32455;SDS011;18912;43.270;27.942;2022-10-16T06:47:47;5.67;;;2.00;;
32455;SDS011;18912;43.270;27.942;2022-10-16T06:50:13;8.23;;;2.70;;
32455;SDS011;18912;43.270;27.942;2022-10-16T06:52:38;10.17;;;2.30;;
32455;SDS011;18912;43.270;27.942;2022-10-16T06:55:04;9.10;;;2.30;;
32455;SDS011;18912;43.270;27.942;2022-10-16T06:57:30;9.93;;;2.53;;
32455;SDS011;18912;43.270;27.942;2022-10-16T06:59:56;6.47;;;2.57;;
32455;SDS011;18912;43.270;27.942;2022-10-16T07:02:21;9.97;;;2.27;;
32455;SDS011;18912;43.270;27.942;2022-10-16T07:04:47;13.40;;;2.33;;
32455;SDS011;18912;43.270;27.942;2022-10-16T07:07:12;7.53;;;2.57;;
32455;SDS011;18912;43.270;27.942;2022-10-16T07:09:38;7.80;;;2.50;;
32455;SDS011;18912;43.270;27.942;2022-10-16T07:12:05;6.70;;;2.70;;
32455;SDS011;18912;43.270;27.942;2022-10-16T07:14:30;10.63;;;2.83;;
32455;SDS011;18912;43.270;27.942;2022-10-16T07:16:55;11.00;;;2.23;;
32455;SDS011;18912;43.270;27.942;2022-10-16T07:19:21;4.13;;;2.10;;
32455;SDS011;18912;43.270;27.942;2022-10-16T07:21:46;12.17;;;3.00;;
32455;SDS011;18912;43.270;27.942;2022-10-16T07:24:15;8.47;;;2.37;;
32455;SDS011;18912;43.270;27.942;2022-10-16T07:26:42;15.75;;;2.85;;
32455;SDS011;18912;43.270;27.942;2022-10-16T07:29:17;8.05;;;2.40;;
32455;SDS011;18912;43.270;27.942;2022-10-16T07:31:45;6.80;;;2.00;;
32455;SDS011;18912;43.270;27.942;2022-10-16T07:34:12;6.93;;;1.73;;
32455;SDS011;18912;43.270;27.942;2022-10-16T07:36:39;7.07;;;2.10;;
32455;SDS011;18912;43.270;27.942;2022-10-16T07:39:04;4.73;;;1.90;;
32455;SDS011;18912;43.270;27.942;2022-10-16T07:41:30;8.17;;;2.03;;
32455;SDS011;18912;43.270;27.942;2022-10-16T07:43:58;8.50;;;2.30;;
32455;SDS011;18912;43.270;27.942;2022-10-16T07:46:25;9.65;;;2.60;;
32455;SDS011;18912;43.270;27.942;2022-10-16T07:48:51;6.03;;;2.33;;
32455;SDS011;18912;43.270;27.942;2022-10-16T07:53:44;7.00;;;2.60;;
32455;SDS011;18912;43.270;27.942;2022-10-16T07:56:10;8.38;;;2.40;;
32455;SDS011;18912;43.270;27.942;2022-10-16T07:58:37;11.10;;;2.75;;
32455;SDS011;18912;43.270;27.942;2022-10-16T08:01:03;7.80;;;2.37;;
32455;SDS011;18912;43.270;27.942;2022-10-16T08:03:30;6.47;;;2.10;;
32455;SDS011;18912;43.270;27.942;2022-10-16T08:05:59;7.20;;;1.90;;
32455;SDS011;18912;43.270;27.942;2022-10-16T08:08:25;11.02;;;2.47;;
32455;SDS011;18912;43.270;27.942;2022-10-16T08:13:17;8.35;;;2.40;;
32455;SDS011;18912;43.270;27.942;2022-10-16T08:15:43;5.77;;;2.23;;
32455;SDS011;18912;43.270;27.942;2022-10-16T08:18:10;11.43;;;2.67;;
32455;SDS011;18912;43.270;27.942;2022-10-16T08:20:36;4.80;;;2.10;;
32455;SDS011;18912;43.270;27.942;2022-10-16T08:23:03;8.90;;;2.57;;
32455;SDS011;18912;43.270;27.942;2022-10-16T08:25:29;5.15;;;1.98;;
32455;SDS011;18912;43.270;27.942;2022-10-16T08:27:55;3.40;;;1.70;;
32455;SDS011;18912;43.270;27.942;2022-10-16T08:30:21;7.45;;;2.13;;
32455;SDS011;18912;43.270;27.942;2022-10-16T08:32:48;16.00;;;2.38;;
32455;SDS011;18912;43.270;27.942;2022-10-16T08:35:14;8.57;;;1.80;;
32455;SDS011;18912;43.270;27.942;2022-10-16T08:37:40;9.40;;;2.00;;
32455;SDS011;18912;43.270;27.942;2022-10-16T08:40:06;5.13;;;1.70;;
32455;SDS011;18912;43.270;27.942;2022-10-16T08:50:42;9.02;;;2.33;;
32455;SDS011;18912;43.270;27.942;2022-10-16T08:53:10;9.80;;;1.80;;
32455;SDS011;18912;43.270;27.942;2022-10-16T08:58:21;6.93;;;2.30;;
32455;SDS011;18912;43.270;27.942;2022-10-16T09:00:55;5.25;;;2.03;;
32455;SDS011;18912;43.270;27.942;2022-10-16T09:06:10;5.80;;;2.17;;
32455;SDS011;18912;43.270;27.942;2022-10-16T09:14:07;8.50;;;1.77;;
32455;SDS011;18912;43.270;27.942;2022-10-16T09:16:56;5.00;;;1.75;;
32455;SDS011;18912;43.270;27.942;2022-10-16T09:19:36;8.98;;;2.10;;
32455;SDS011;18912;43.270;27.942;2022-10-16T09:22:11;7.68;;;2.17;;
32455;SDS011;18912;43.270;27.942;2022-10-16T09:24:40;5.35;;;1.90;;
32455;SDS011;18912;43.270;27.942;2022-10-16T09:27:13;7.07;;;2.05;;
32455;SDS011;18912;43.270;27.942;2022-10-16T09:29:40;4.10;;;2.25;;
32455;SDS011;18912;43.270;27.942;2022-10-16T09:32:10;8.73;;;2.28;;
32455;SDS011;18912;43.270;27.942;2022-10-16T09:34:41;6.03;;;2.05;;
32455;SDS011;18912;43.270;27.942;2022-10-16T09:37:12;10.98;;;2.63;;
32455;SDS011;18912;43.270;27.942;2022-10-16T09:39:51;5.68;;;3.20;;
32455;SDS011;18912;43.270;27.942;2022-10-16T09:42:18;7.33;;;2.10;;
32455;SDS011;18912;43.270;27.942;2022-10-16T09:44:49;7.43;;;2.35;;
32455;SDS011;18912;43.270;27.942;2022-10-16T09:47:19;4.82;;;1.85;;
32455;SDS011;18912;43.270;27.942;2022-10-16T09:49:55;12.13;;;2.20;;
32455;SDS011;18912;43.270;27.942;2022-10-16T09:52:24;9.23;;;2.03;;
32455;SDS011;18912;43.270;27.942;2022-10-16T09:57:16;5.93;;;2.33;;
32455;SDS011;18912;43.270;27.942;2022-10-16T10:02:41;7.72;;;2.13;;
32455;SDS011;18912;43.270;27.942;2022-10-16T10:05:06;8.00;;;1.80;;
32455;SDS011;18912;43.270;27.942;2022-10-16T10:07:44;9.05;;;2.30;;
32455;SDS011;18912;43.270;27.942;2022-10-16T10:10:24;7.88;;;2.13;;
32455;SDS011;18912;43.270;27.942;2022-10-16T10:12:53;10.40;;;1.92;;
32455;SDS011;18912;43.270;27.942;2022-10-16T10:15:20;9.70;;;2.10;;
32455;SDS011;18912;43.270;27.942;2022-10-16T10:17:54;12.23;;;2.33;;
32455;SDS011;18912;43.270;27.942;2022-10-16T10:20:26;8.40;;;2.17;;
32455;SDS011;18912;43.270;27.942;2022-10-16T10:22:54;3.85;;;1.75;;
32455;SDS011;18912;43.270;27.942;2022-10-16T10:44:01;8.10;;;2.30;;
32455;SDS011;18912;43.270;27.942;2022-10-16T10:52:02;6.32;;;2.50;;
32455;SDS011;18912;43.270;27.942;2022-10-16T10:54:54;7.55;;;2.30;;
32455;SDS011;18912;43.270;27.942;2022-10-16T11:00:31;4.68;;;1.95;;
32455;SDS011;18912;43.270;27.942;2022-10-16T11:03:17;8.80;;;2.28;;
32455;SDS011;18912;43.270;27.942;2022-10-16T11:06:33;12.05;;;2.38;;
32455;SDS011;18912;43.270;27.942;2022-10-16T11:08:53;6.60;;;2.10;;
32455;SDS011;18912;43.270;27.942;2022-10-16T11:11:36;7.68;;;2.38;;
32455;SDS011;18912;43.270;27.942;2022-10-16T11:16:43;6.40;;;2.63;;
32455;SDS011;18912;43.270;27.942;2022-10-16T11:19:28;9.02;;;2.25;;
32455;SDS011;18912;43.270;27.942;2022-10-16T11:27:43;10.48;;;3.33;;
32455;SDS011;18912;43.270;27.942;2022-10-16T11:30:20;8.48;;;1.95;;
32455;SDS011;18912;43.270;27.942;2022-10-16T11:33:32;8.32;;;2.10;;
32455;SDS011;18912;43.270;27.942;2022-10-16T11:35:59;9.70;;;2.20;;
32455;SDS011;18912;43.270;27.942;2022-10-16T11:41:47;9.00;;;2.60;;
32455;SDS011;18912;43.270;27.942;2022-10-16T11:46:43;10.52;;;2.88;;
32455;SDS011;18912;43.270;27.942;2022-10-16T11:49:33;6.97;;;2.17;;
32455;SDS011;18912;43.270;27.942;2022-10-16T11:52:17;13.93;;;2.20;;
32455;SDS011;18912;43.270;27.942;2022-10-16T11:54:54;10.55;;;2.20;;
32455;SDS011;18912;43.270;27.942;2022-10-16T11:57:24;5.70;;;1.90;;
32455;SDS011;18912;43.270;27.942;2022-10-16T12:00:36;5.00;;;1.98;;
32455;SDS011;18912;43.270;27.942;2022-10-16T12:08:59;7.25;;;2.08;;
32455;SDS011;18912;43.270;27.942;2022-10-16T12:13:52;6.47;;;2.30;;
32455;SDS011;18912;43.270;27.942;2022-10-16T12:16:30;5.15;;;2.35;;
32455;SDS011;18912;43.270;27.942;2022-10-16T12:19:10;7.53;;;2.03;;
32455;SDS011;18912;43.270;27.942;2022-10-16T12:21:35;7.68;;;2.45;;
32455;SDS011;18912;43.270;27.942;2022-10-16T12:24:02;5.53;;;1.80;;
32455;SDS011;18912;43.270;27.942;2022-10-16T12:26:32;9.18;;;2.13;;
32455;SDS011;18912;43.270;27.942;2022-10-16T12:29:19;8.45;;;2.53;;
32455;SDS011;18912;43.270;27.942;2022-10-16T12:31:57;5.35;;;2.05;;
32455;SDS011;18912;43.270;27.942;2022-10-16T12:34:26;5.40;;;2.43;;
32455;SDS011;18912;43.270;27.942;2022-10-16T12:37:23;6.72;;;2.33;;
32455;SDS011;18912;43.270;27.942;2022-10-16T12:39:51;8.40;;;2.20;;
32455;SDS011;18912;43.270;27.942;2022-10-16T12:44:53;5.20;;;2.13;;
32455;SDS011;18912;43.270;27.942;2022-10-16T12:49:57;8.80;;;2.30;;
32455;SDS011;18912;43.270;27.942;2022-10-16T12:52:24;11.63;;;2.45;;
32455;SDS011;18912;43.270;27.942;2022-10-16T12:54:50;8.63;;;2.30;;
32455;SDS011;18912;43.270;27.942;2022-10-16T13:10:58;11.65;;;2.53;;
32455;SDS011;18912;43.270;27.942;2022-10-16T13:18:45;8.40;;;2.38;;
32455;SDS011;18912;43.270;27.942;2022-10-16T13:29:17;4.33;;;2.30;;
32455;SDS011;18912;43.270;27.942;2022-10-16T13:31:44;10.50;;;2.80;;
32455;SDS011;18912;43.270;27.942;2022-10-16T13:34:17;10.90;;;2.90;;
32455;SDS011;18912;43.270;27.942;2022-10-16T13:36:47;8.65;;;2.90;;
32455;SDS011;18912;43.270;27.942;2022-10-16T13:39:35;10.10;;;2.80;;
32455;SDS011;18912;43.270;27.942;2022-10-16T13:42:05;10.15;;;2.60;;
32455;SDS011;18912;43.270;27.942;2022-10-16T13:44:42;8.88;;;2.30;;
32455;SDS011;18912;43.270;27.942;2022-10-16T13:47:13;3.40;;;2.05;;
32455;SDS011;18912;43.270;27.942;2022-10-16T13:50:19;5.25;;;1.83;;
32455;SDS011;18912;43.270;27.942;2022-10-16T13:52:44;10.00;;;2.20;;
32455;SDS011;18912;43.270;27.942;2022-10-16T13:55:11;9.67;;;2.73;;
32455;SDS011;18912;43.270;27.942;2022-10-16T13:57:37;8.32;;;2.28;;
32455;SDS011;18912;43.270;27.942;2022-10-16T14:00:02;6.37;;;2.23;;
32455;SDS011;18912;43.270;27.942;2022-10-16T14:02:33;9.50;;;2.60;;
32455;SDS011;18912;43.270;27.942;2022-10-16T14:05:02;8.40;;;2.40;;
32455;SDS011;18912;43.270;27.942;2022-10-16T14:07:30;7.93;;;2.53;;
32455;SDS011;18912;43.270;27.942;2022-10-16T14:10:00;6.28;;;2.10;;
32455;SDS011;18912;43.270;27.942;2022-10-16T14:12:32;14.38;;;2.60;;
32455;SDS011;18912;43.270;27.942;2022-10-16T14:14:58;6.03;;;2.55;;
32455;SDS011;18912;43.270;27.942;2022-10-16T14:17:28;7.35;;;1.90;;
32455;SDS011;18912;43.270;27.942;2022-10-16T14:19:59;5.70;;;2.22;;
32455;SDS011;18912;43.270;27.942;2022-10-16T14:22:32;7.40;;;2.13;;
32455;SDS011;18912;43.270;27.942;2022-10-16T14:25:00;10.60;;;1.90;;
32455;SDS011;18912;43.270;27.942;2022-10-16T14:32:40;10.00;;;2.55;;
32455;SDS011;18912;43.270;27.942;2022-10-16T14:35:21;12.10;;;2.30;;
32455;SDS011;18912;43.270;27.942;2022-10-16T14:37:50;3.70;;;2.08;;
32455;SDS011;18912;43.270;27.942;2022-10-16T14:40:17;7.63;;;2.72;;
32455;SDS011;18912;43.270;27.942;2022-10-16T14:42:43;8.13;;;2.47;;
32455;SDS011;18912;43.270;27.942;2022-10-16T14:45:09;7.05;;;2.22;;
32455;SDS011;18912;43.270;27.942;2022-10-16T14:47:36;8.63;;;2.50;;
32455;SDS011;18912;43.270;27.942;2022-10-16T14:50:12;7.43;;;2.22;;
32455;SDS011;18912;43.270;27.942;2022-10-16T14:52:38;4.83;;;2.30;;
32455;SDS011;18912;43.270;27.942;2022-10-16T14:55:04;9.40;;;2.87;;
32455;SDS011;18912;43.270;27.942;2022-10-16T14:57:31;11.18;;;2.78;;
32455;SDS011;18912;43.270;27.942;2022-10-16T14:59:58;8.43;;;2.40;;
32455;SDS011;18912;43.270;27.942;2022-10-16T15:02:28;6.43;;;2.23;;
32455;SDS011;18912;43.270;27.942;2022-10-16T15:04:55;11.75;;;1.73;;
32455;SDS011;18912;43.270;27.942;2022-10-16T15:07:22;11.18;;;2.08;;
32455;SDS011;18912;43.270;27.942;2022-10-16T15:09:47;11.47;;;2.40;;
32455;SDS011;18912;43.270;27.942;2022-10-16T15:12:13;6.50;;;2.83;;
32455;SDS011;18912;43.270;27.942;2022-10-16T15:14:39;17.33;;;3.00;;
32455;SDS011;18912;43.270;27.942;2022-10-16T15:17:04;5.67;;;2.40;;
32455;SDS011;18912;43.270;27.942;2022-10-16T15:19:30;13.53;;;2.97;;
32455;SDS011;18912;43.270;27.942;2022-10-16T15:21:55;5.03;;;2.33;;
32455;SDS011;18912;43.270;27.942;2022-10-16T15:24:21;4.73;;;2.90;;
32455;SDS011;18912;43.270;27.942;2022-10-16T15:26:46;10.07;;;2.87;;
32455;SDS011;18912;43.270;27.942;2022-10-16T15:29:12;6.67;;;2.60;;
32455;SDS011;18912;43.270;27.942;2022-10-16T15:31:38;10.40;;;2.60;;
32455;SDS011;18912;43.270;27.942;2022-10-16T15:34:08;18.02;;;3.08;;
32455;SDS011;18912;43.270;27.942;2022-10-16T15:39:05;13.95;;;4.05;;
32455;SDS011;18912;43.270;27.942;2022-10-16T15:41:36;7.25;;;3.05;;
32455;SDS011;18912;43.270;27.942;2022-10-16T15:44:02;6.63;;;3.87;;
32455;SDS011;18912;43.270;27.942;2022-10-16T15:46:28;8.10;;;3.77;;
32455;SDS011;18912;43.270;27.942;2022-10-16T15:48:56;14.48;;;4.57;;
32455;SDS011;18912;43.270;27.942;2022-10-16T15:51:23;10.43;;;4.38;;
32455;SDS011;18912;43.270;27.942;2022-10-16T15:53:49;12.23;;;4.43;;
32455;SDS011;18912;43.270;27.942;2022-10-16T15:56:16;13.80;;;4.88;;
32455;SDS011;18912;43.270;27.942;2022-10-16T15:58:42;12.60;;;4.88;;
32455;SDS011;18912;43.270;27.942;2022-10-16T16:01:08;12.50;;;5.72;;
32455;SDS011;18912;43.270;27.942;2022-10-16T16:06:08;13.20;;;5.25;;
32455;SDS011;18912;43.270;27.942;2022-10-16T16:08:36;12.82;;;5.40;;
32455;SDS011;18912;43.270;27.942;2022-10-16T16:11:04;13.98;;;5.20;;
32455;SDS011;18912;43.270;27.942;2022-10-16T16:13:31;12.82;;;4.70;;
32455;SDS011;18912;43.270;27.942;2022-10-16T16:15:56;12.50;;;4.53;;
32455;SDS011;18912;43.270;27.942;2022-10-16T16:18:22;10.20;;;4.77;;
32455;SDS011;18912;43.270;27.942;2022-10-16T16:20:49;18.27;;;4.50;;
32455;SDS011;18912;43.270;27.942;2022-10-16T16:23:15;15.32;;;5.38;;
32455;SDS011;18912;43.270;27.942;2022-10-16T16:25:40;22.13;;;5.03;;
32455;SDS011;18912;43.270;27.942;2022-10-16T16:28:06;15.80;;;4.97;;
32455;SDS011;18912;43.270;27.942;2022-10-16T16:30:32;12.83;;;5.00;;
32455;SDS011;18912;43.270;27.942;2022-10-16T16:32:57;18.37;;;4.63;;
32455;SDS011;18912;43.270;27.942;2022-10-16T16:35:23;14.53;;;4.47;;
32455;SDS011;18912;43.270;27.942;2022-10-16T16:37:48;26.03;;;5.37;;
32455;SDS011;18912;43.270;27.942;2022-10-16T16:40:14;10.37;;;4.63;;
32455;SDS011;18912;43.270;27.942;2022-10-16T16:42:39;14.90;;;4.43;;
32455;SDS011;18912;43.270;27.942;2022-10-16T16:45:05;14.53;;;5.37;;
32455;SDS011;18912;43.270;27.942;2022-10-16T16:47:31;11.25;;;5.20;;
32455;SDS011;18912;43.270;27.942;2022-10-16T16:49:57;17.37;;;4.73;;
32455;SDS011;18912;43.270;27.942;2022-10-16T16:52:22;19.37;;;5.40;;
32455;SDS011;18912;43.270;27.942;2022-10-16T16:54:48;10.93;;;4.80;;
32455;SDS011;18912;43.270;27.942;2022-10-16T16:57:19;66.97;;;15.30;;
32455;SDS011;18912;43.270;27.942;2022-10-16T16:59:45;49.45;;;15.57;;
32455;SDS011;18912;43.270;27.942;2022-10-16T17:02:10;21.83;;;9.37;;
32455;SDS011;18912;43.270;27.942;2022-10-16T17:04:36;17.43;;;5.17;;
32455;SDS011;18912;43.270;27.942;2022-10-16T17:07:01;17.43;;;4.70;;